createdAt,value
2019-02-12T00:00:53.422Z,4.64
2019-02-12T00:01:53.450Z,4.67
2019-02-12T00:02:53.479Z,4.71
2019-02-12T00:03:53.505Z,4.71
2019-02-12T00:04:53.533Z,4.75
2019-02-12T00:05:53.562Z,4.74
2019-02-12T00:06:53.590Z,4.72
2019-02-12T00:07:53.616Z,4.74
2019-02-12T00:08:53.645Z,4.69
2019-02-12T00:09:53.673Z,4.71
2019-02-12T00:10:53.703Z,4.69
2019-02-12T00:11:53.731Z,4.72
2019-02-12T00:12:53.756Z,4.74
2019-02-12T00:13:53.786Z,4.72
2019-02-12T00:14:53.813Z,4.69
2019-02-12T00:15:53.840Z,4.71
2019-02-12T00:16:53.868Z,4.69
2019-02-12T00:17:53.897Z,4.74
2019-02-12T00:18:53.934Z,4.65
2019-02-12T00:19:53.952Z,4.69
2019-02-12T00:20:53.979Z,4.77
2019-02-12T00:21:54.007Z,4.69
2019-02-12T00:22:54.038Z,4.79
2019-02-12T00:23:54.067Z,4.67
2019-02-12T00:24:54.092Z,4.74
2019-02-12T00:25:54.118Z,4.71
2019-02-12T00:26:54.147Z,4.75
2019-02-12T00:27:54.180Z,4.69
2019-02-12T00:28:54.204Z,4.75
2019-02-12T00:29:54.230Z,4.71
2019-02-12T00:30:54.258Z,4.68
2019-02-12T00:31:54.286Z,4.67
2019-02-12T00:32:54.324Z,4.69
2019-02-12T00:33:54.341Z,4.65
2019-02-12T00:34:54.370Z,4.59
2019-02-12T00:35:54.396Z,4.54
2019-02-12T00:36:54.424Z,4.57
2019-02-12T00:37:54.452Z,4.59
2019-02-12T00:38:54.481Z,4.56
2019-02-12T00:39:54.507Z,4.53
2019-02-12T00:40:54.538Z,4.56
2019-02-12T00:41:54.565Z,4.54
2019-02-12T00:42:54.595Z,4.54
2019-02-12T00:43:54.620Z,4.59
2019-02-12T00:44:54.648Z,4.59
2019-02-12T00:45:54.676Z,4.56
2019-02-12T00:46:54.704Z,4.57
2019-02-12T00:47:54.731Z,4.56
2019-02-12T00:48:54.759Z,4.59
2019-02-12T00:49:54.788Z,4.65
2019-02-12T00:50:54.816Z,4.62
2019-02-12T00:51:54.848Z,4.59
2019-02-12T00:52:54.870Z,4.64
2019-02-12T00:53:54.900Z,4.65
2019-02-12T00:54:54.934Z,4.61
2019-02-12T00:55:54.953Z,4.65
2019-02-12T00:56:54.983Z,4.65
2019-02-12T00:57:55.009Z,4.59
2019-02-12T00:58:55.038Z,4.53
2019-02-12T00:59:55.065Z,4.47
2019-02-12T01:00:55.097Z,4.47
2019-02-12T01:01:55.120Z,4.47
2019-02-12T01:02:55.148Z,4.46
2019-02-12T01:03:55.176Z,4.39
2019-02-12T01:04:55.204Z,4.36
2019-02-12T01:05:55.232Z,4.39
2019-02-12T01:06:55.261Z,4.36
2019-02-12T01:07:55.296Z,4.35
2019-02-12T01:08:55.315Z,4.32
2019-02-12T01:09:55.343Z,4.39
2019-02-12T01:10:55.371Z,4.35
2019-02-12T01:11:55.399Z,4.32
2019-02-12T01:12:55.437Z,4.32
2019-02-12T01:13:55.455Z,4.34
2019-02-12T01:14:55.482Z,4.29
2019-02-12T01:15:55.509Z,4.36
2019-02-12T01:16:55.537Z,4.35
2019-02-12T01:17:55.566Z,4.34
2019-02-12T01:18:55.602Z,4.35
2019-02-12T01:19:55.621Z,4.35
2019-02-12T01:20:55.649Z,4.29
2019-02-12T01:21:55.677Z,4.29
2019-02-12T01:22:55.709Z,4.36
2019-02-12T01:23:55.733Z,4.36
2019-02-12T01:24:55.760Z,4.32
2019-02-12T01:25:55.788Z,4.34
2019-02-12T01:26:55.819Z,4.32
2019-02-12T01:27:55.847Z,4.35
2019-02-12T01:28:55.871Z,4.34
2019-02-12T01:29:55.899Z,4.32
2019-02-12T01:30:55.926Z,4.35
2019-02-12T01:31:55.960Z,4.38
2019-02-12T01:32:55.985Z,4.36
2019-02-12T01:33:56.010Z,4.32
2019-02-12T01:34:56.041Z,4.34
2019-02-12T01:35:56.064Z,4.29
2019-02-12T01:36:56.093Z,4.38
2019-02-12T01:37:56.131Z,4.35
2019-02-12T01:38:56.152Z,4.34
2019-02-12T01:39:56.175Z,4.43
2019-02-12T01:40:56.204Z,4.36
2019-02-12T01:41:56.234Z,4.32
2019-02-12T01:42:56.258Z,4.36
2019-02-12T01:43:56.285Z,4.35
2019-02-12T01:44:56.330Z,4.34
2019-02-12T01:45:56.343Z,4.32
2019-02-12T01:46:56.369Z,4.32
2019-02-12T01:47:56.397Z,4.31
2019-02-12T01:48:56.424Z,4.36
2019-02-12T01:49:56.453Z,4.36
2019-02-12T01:50:56.480Z,4.28
2019-02-12T01:51:56.507Z,4.31
2019-02-12T01:52:56.539Z,4.36
2019-02-12T01:53:56.562Z,4.35
2019-02-12T01:54:56.598Z,4.32
2019-02-12T01:55:56.618Z,4.32
2019-02-12T01:56:56.648Z,4.35
2019-02-12T01:57:56.679Z,4.42
2019-02-12T01:58:56.704Z,4.36
2019-02-12T01:59:56.735Z,4.35
2019-02-12T02:00:56.758Z,4.44
2019-02-12T02:01:56.790Z,4.44
2019-02-12T02:02:56.817Z,4.43
2019-02-12T02:03:56.840Z,4.50
2019-02-12T02:04:56.868Z,4.46
2019-02-12T02:05:56.896Z,4.47
2019-02-12T02:06:56.928Z,4.47
2019-02-12T02:07:56.953Z,4.46
2019-02-12T02:08:56.979Z,4.49
2019-02-12T02:09:57.006Z,4.54
2019-02-12T02:10:57.035Z,4.54
2019-02-12T02:11:57.063Z,4.56
2019-02-12T02:12:57.091Z,4.54
2019-02-12T02:13:57.118Z,4.57
2019-02-12T02:14:57.149Z,4.62
2019-02-12T02:15:57.174Z,4.51
2019-02-12T02:16:57.201Z,4.61
2019-02-12T02:17:57.229Z,4.56
2019-02-12T02:18:57.258Z,4.61
2019-02-12T02:19:57.284Z,4.61
2019-02-12T02:20:57.318Z,4.61
2019-02-12T02:21:57.340Z,4.62
2019-02-12T02:22:57.376Z,4.65
2019-02-12T02:23:57.395Z,4.69
2019-02-12T02:24:57.425Z,4.62
2019-02-12T02:25:57.496Z,4.62
2019-02-12T02:26:57.479Z,4.65
2019-02-12T02:27:57.507Z,4.62
2019-02-12T02:28:57.534Z,4.57
2019-02-12T02:29:57.563Z,4.67
2019-02-12T02:30:57.593Z,4.69
2019-02-12T02:31:57.616Z,4.72
2019-02-12T02:32:57.645Z,4.68
2019-02-12T02:34:35.583Z,4.67
2019-02-12T02:34:57.701Z,4.71
2019-02-12T02:35:57.728Z,4.65
2019-02-12T02:36:57.756Z,4.65
2019-02-12T02:37:57.785Z,4.59
2019-02-12T02:38:57.813Z,4.65
2019-02-12T02:39:57.845Z,4.62
2019-02-12T02:40:57.870Z,4.65
2019-02-12T02:41:57.897Z,4.59
2019-02-12T02:42:57.929Z,4.57
2019-02-12T02:43:57.958Z,4.62
2019-02-12T02:44:57.982Z,4.67
2019-02-12T02:45:58.007Z,4.65
2019-02-12T02:46:58.036Z,4.67
2019-02-12T02:47:58.066Z,4.71
2019-02-12T02:48:58.091Z,4.59
2019-02-12T02:49:58.119Z,4.65
2019-02-12T02:50:58.151Z,4.64
2019-02-12T02:51:58.178Z,4.62
2019-02-12T02:52:58.203Z,4.61
2019-02-12T02:53:58.230Z,4.67
2019-02-12T02:54:58.259Z,4.64
2019-02-12T02:55:58.287Z,4.64
2019-02-12T02:56:58.314Z,4.67
2019-02-12T02:57:58.342Z,4.65
2019-02-12T02:58:58.370Z,4.62
2019-02-12T02:59:58.395Z,4.62
2019-02-12T03:00:58.426Z,4.62
2019-02-12T03:01:58.453Z,4.61
2019-02-12T03:02:58.481Z,4.67
2019-02-12T03:03:58.510Z,4.59
2019-02-12T03:04:58.537Z,4.54
2019-02-12T03:05:58.564Z,4.57
2019-02-12T03:06:58.601Z,4.64
2019-02-12T03:07:58.619Z,4.62
2019-02-12T03:08:58.661Z,4.62
2019-02-12T03:09:58.675Z,4.65
2019-02-12T03:10:58.709Z,4.59
2019-02-12T03:11:58.733Z,4.59
2019-02-12T03:12:58.773Z,4.59
2019-02-12T03:13:58.791Z,4.62
2019-02-12T03:14:58.819Z,4.51
2019-02-12T03:15:58.843Z,4.56
2019-02-12T03:16:58.870Z,4.61
2019-02-12T03:17:58.901Z,4.44
2019-02-12T03:18:58.926Z,4.46
2019-02-12T03:19:58.955Z,4.49
2019-02-12T03:20:58.984Z,4.38
2019-02-12T03:22:03.674Z,4.43
2019-02-12T03:22:59.036Z,4.36
2019-02-12T03:23:59.063Z,4.36
2019-02-12T03:24:59.096Z,4.35
2019-02-12T03:25:59.121Z,4.34
2019-02-12T03:26:59.148Z,4.32
2019-02-12T03:27:59.176Z,4.35
2019-02-12T03:28:59.203Z,4.26
2019-02-12T03:29:59.238Z,4.25
2019-02-12T03:30:59.260Z,4.24
2019-02-12T03:31:59.295Z,4.26
2019-02-12T03:32:59.315Z,4.29
2019-02-12T03:33:59.356Z,4.28
2019-02-12T03:34:59.370Z,4.26
2019-02-12T03:35:59.396Z,4.21
2019-02-12T03:36:59.423Z,4.24
2019-02-12T03:37:59.483Z,4.18
2019-02-12T03:38:59.479Z,4.16
2019-02-12T03:39:59.507Z,4.20
2019-02-12T03:40:59.535Z,4.21
2019-02-12T03:41:59.561Z,4.17
2019-02-12T03:42:59.590Z,4.11
2019-02-12T03:43:59.616Z,4.04
2019-02-12T03:44:59.644Z,4.04
2019-02-12T03:45:59.673Z,4.06
2019-02-12T03:46:59.699Z,4.02
2019-02-12T03:47:59.727Z,4.10
2019-02-12T03:48:59.756Z,4.07
2019-02-12T03:49:59.783Z,4.04
2019-02-12T03:50:59.809Z,4.00
2019-02-12T03:51:59.837Z,3.99
2019-02-12T03:52:59.864Z,4.00
2019-02-12T03:53:59.892Z,4.00
2019-02-12T03:54:59.924Z,4.02
2019-02-12T03:55:59.947Z,4.04
2019-02-12T03:56:59.975Z,4.08
2019-02-12T03:58:00.003Z,3.96
2019-02-12T03:59:00.033Z,3.96
2019-02-12T04:00:00.058Z,4.02
2019-02-12T04:01:00.088Z,4.04
2019-02-12T04:02:00.117Z,3.99
2019-02-12T04:03:00.141Z,3.92
2019-02-12T04:04:00.169Z,4.00
2019-02-12T04:05:00.461Z,3.98
2019-02-12T04:06:00.224Z,3.99
2019-02-12T04:07:00.254Z,4.02
2019-02-12T04:08:00.278Z,3.98
2019-02-12T04:09:00.307Z,3.98
2019-02-12T04:10:00.681Z,3.89
2019-02-12T04:11:00.361Z,3.96
2019-02-12T04:12:00.390Z,3.95
2019-02-12T04:13:00.416Z,3.95
2019-02-12T04:14:00.443Z,3.93
2019-02-12T04:15:00.471Z,3.92
2019-02-12T04:16:00.497Z,3.95
2019-02-12T04:17:00.525Z,3.93
2019-02-12T04:18:00.554Z,3.95
2019-02-12T04:19:00.582Z,3.95
2019-02-12T04:20:00.637Z,3.95
2019-02-12T04:21:00.635Z,3.92
2019-02-12T04:22:00.662Z,3.95
2019-02-12T04:23:00.695Z,3.95
2019-02-12T04:24:00.719Z,3.95
2019-02-12T04:25:00.755Z,3.98
2019-02-12T04:26:00.777Z,3.90
2019-02-12T04:27:00.805Z,3.95
2019-02-12T04:28:00.825Z,3.93
2019-02-12T04:29:00.855Z,3.86
2019-02-12T04:30:00.881Z,3.92
2019-02-12T04:31:00.909Z,3.90
2019-02-12T04:32:00.945Z,3.96
2019-02-12T04:33:00.963Z,3.86
2019-02-12T04:34:00.990Z,3.99
2019-02-12T04:35:01.018Z,3.96
2019-02-12T04:36:01.044Z,3.99
2019-02-12T04:37:01.076Z,4.00
2019-02-12T04:38:01.100Z,3.92
2019-02-12T04:39:01.128Z,3.92
2019-02-12T04:40:01.155Z,3.99
2019-02-12T04:41:01.182Z,3.96
2019-02-12T04:42:01.211Z,3.98
2019-02-12T04:43:01.243Z,3.96
2019-02-12T04:44:01.265Z,3.92
2019-02-12T04:45:01.310Z,4.00
2019-02-12T04:46:01.317Z,4.02
2019-02-12T04:47:01.350Z,3.93
2019-02-12T04:48:01.374Z,3.98
2019-02-12T04:49:01.401Z,4.04
2019-02-12T04:50:01.468Z,3.96
2019-02-12T04:51:01.458Z,3.98
2019-02-12T04:52:01.484Z,3.99
2019-02-12T04:53:01.511Z,3.99
2019-02-12T04:54:01.540Z,4.04
2019-02-12T04:55:01.566Z,4.02
2019-02-12T04:56:01.593Z,4.00
2019-02-12T04:57:01.620Z,4.00
2019-02-12T04:58:01.657Z,4.04
2019-02-12T04:59:01.692Z,4.00
2019-02-12T05:00:01.702Z,4.04
2019-02-12T05:01:01.738Z,3.99
2019-02-12T05:02:01.757Z,3.99
2019-02-12T05:03:01.785Z,3.96
2019-02-12T05:04:01.812Z,3.99
2019-02-12T05:05:01.843Z,3.98
2019-02-12T05:06:01.867Z,3.93
2019-02-12T05:07:01.922Z,3.95
2019-02-12T05:08:01.921Z,3.95
2019-02-12T05:09:01.950Z,3.93
2019-02-12T05:10:01.982Z,3.99
2019-02-12T05:11:02.004Z,3.98
2019-02-12T05:12:02.035Z,3.96
2019-02-12T05:13:02.074Z,3.86
2019-02-12T05:14:02.089Z,3.96
2019-02-12T05:15:02.115Z,3.93
2019-02-12T05:16:02.141Z,3.84
2019-02-12T05:17:02.167Z,3.88
2019-02-12T05:18:02.199Z,3.92
2019-02-12T05:19:02.222Z,3.84
2019-02-12T05:20:02.249Z,3.86
2019-02-12T05:21:02.294Z,3.93
2019-02-12T05:22:02.304Z,3.89
2019-02-12T05:23:02.354Z,3.86
2019-02-12T05:24:02.359Z,3.88
2019-02-12T05:25:02.386Z,3.93
2019-02-12T05:26:02.414Z,3.89
2019-02-12T05:27:02.443Z,3.82
2019-02-12T05:28:02.475Z,3.82
2019-02-12T05:29:02.498Z,3.82
2019-02-12T05:30:02.524Z,3.90
2019-02-12T05:31:02.551Z,3.80
2019-02-12T05:32:02.578Z,3.81
2019-02-12T05:33:02.606Z,3.86
2019-02-12T05:34:02.632Z,3.89
2019-02-12T05:35:02.672Z,3.86
2019-02-12T05:36:02.685Z,3.74
2019-02-12T05:37:02.713Z,3.72
2019-02-12T05:38:02.742Z,3.72
2019-02-12T05:39:02.769Z,3.86
2019-02-12T05:40:02.823Z,3.84
2019-02-12T05:41:02.829Z,3.72
2019-02-12T05:42:02.850Z,3.89
2019-02-12T05:43:02.879Z,3.74
2019-02-12T05:44:02.925Z,3.80
2019-02-12T05:45:02.930Z,3.82
2019-02-12T05:46:02.961Z,3.81
2019-02-12T05:47:02.987Z,3.78
2019-02-12T05:48:03.013Z,3.88
2019-02-12T05:49:03.043Z,3.81
2019-02-12T05:50:03.068Z,3.90
2019-02-12T05:51:03.101Z,3.86
2019-02-12T05:52:03.154Z,3.86
2019-02-12T05:53:03.158Z,3.93
2019-02-12T05:54:03.177Z,3.86
2019-02-12T05:55:03.217Z,3.92
2019-02-12T05:56:03.231Z,3.93
2019-02-12T05:57:03.259Z,3.99
2019-02-12T05:58:03.286Z,4.02
2019-02-12T05:59:03.313Z,4.06
2019-02-12T06:00:03.347Z,4.04
2019-02-12T06:01:03.372Z,4.08
2019-02-12T06:02:03.394Z,4.02
2019-02-12T06:03:03.423Z,3.93
2019-02-12T06:04:03.454Z,4.11
2019-02-12T06:05:03.477Z,4.00
2019-02-12T06:06:03.505Z,4.10
2019-02-12T06:07:03.532Z,4.11
2019-02-12T06:08:03.566Z,4.17
2019-02-12T06:09:03.589Z,4.07
2019-02-12T06:10:03.621Z,4.11
2019-02-12T06:11:03.641Z,4.17
2019-02-12T06:12:03.671Z,4.20
2019-02-12T06:13:03.693Z,4.28
2019-02-12T06:14:03.723Z,4.35
2019-02-12T06:15:03.751Z,4.31
2019-02-12T06:16:03.778Z,4.31
2019-02-12T06:17:03.805Z,4.31
2019-02-12T06:18:03.834Z,4.32
2019-02-12T06:19:03.865Z,4.26
2019-02-12T06:20:03.886Z,4.34
2019-02-12T06:21:03.915Z,4.26
2019-02-12T06:22:03.941Z,4.38
2019-02-12T06:23:04.357Z,4.35
2019-02-12T06:24:03.998Z,4.32
2019-02-12T06:25:07.587Z,4.34
2019-02-12T06:26:04.061Z,4.34
2019-02-12T06:27:04.080Z,4.31
2019-02-12T06:28:04.109Z,4.35
2019-02-12T06:29:04.137Z,4.34
2019-02-12T06:30:04.163Z,4.39
2019-02-12T06:31:04.190Z,4.34
2019-02-12T06:32:04.218Z,4.34
2019-02-12T06:33:07.649Z,4.36
2019-02-12T06:34:04.273Z,4.35
2019-02-12T06:35:04.304Z,4.34
2019-02-12T06:36:04.335Z,4.32
2019-02-12T06:37:04.354Z,4.44
2019-02-12T06:38:04.382Z,4.42
2019-02-12T06:39:04.409Z,4.44
2019-02-12T06:40:04.437Z,4.46
2019-02-12T06:41:04.468Z,4.47
2019-02-12T06:42:04.492Z,4.42
2019-02-12T06:43:04.536Z,4.44
2019-02-12T06:44:04.547Z,4.43
2019-02-12T06:45:04.575Z,4.59
2019-02-12T06:46:04.604Z,4.47
2019-02-12T06:47:04.645Z,4.57
2019-02-12T06:48:04.657Z,4.57
2019-02-12T06:49:04.685Z,4.53
2019-02-12T06:50:04.715Z,4.56
2019-02-12T06:51:04.743Z,4.64
2019-02-12T06:52:04.772Z,4.65
2019-02-12T06:53:12.395Z,4.59
2019-02-12T06:54:04.827Z,4.59
2019-02-12T06:55:04.852Z,4.62
2019-02-12T06:56:04.879Z,4.65
2019-02-12T06:57:04.907Z,4.59
2019-02-12T06:58:04.937Z,4.62
2019-02-12T06:59:04.965Z,4.57
2019-02-12T07:00:04.991Z,4.56
2019-02-12T07:01:05.021Z,4.62
2019-02-12T07:02:05.048Z,4.57
2019-02-12T07:03:05.076Z,4.64
2019-02-12T07:04:05.104Z,4.62
2019-02-12T07:05:05.131Z,4.62
2019-02-12T07:06:05.158Z,4.59
2019-02-12T07:07:05.187Z,4.59
2019-02-12T07:08:05.215Z,4.61
2019-02-12T07:09:05.243Z,4.59
2019-02-12T07:10:05.269Z,4.61
2019-02-12T07:11:05.299Z,4.68
2019-02-12T07:12:05.330Z,4.67
2019-02-12T07:13:05.359Z,4.65
2019-02-12T07:14:05.428Z,4.72
2019-02-12T07:15:05.409Z,4.75
2019-02-12T07:16:05.435Z,4.69
2019-02-12T07:17:05.466Z,4.77
2019-02-12T07:18:05.498Z,4.77
2019-02-12T07:19:05.520Z,4.79
2019-02-12T07:20:05.550Z,4.74
2019-02-12T07:21:05.575Z,4.75
2019-02-12T07:22:05.603Z,4.80
2019-02-12T07:23:05.636Z,4.79
2019-02-12T07:24:05.675Z,4.83
2019-02-12T07:25:05.686Z,4.87
2019-02-12T07:26:05.714Z,4.87
2019-02-12T07:27:05.742Z,4.96
2019-02-12T07:28:05.769Z,4.94
2019-02-12T07:29:05.797Z,4.97
2019-02-12T07:30:05.826Z,4.97
2019-02-12T07:31:06.019Z,4.99
2019-02-12T07:32:05.889Z,5.01
2019-02-12T07:33:13.183Z,5.02
2019-02-12T07:34:05.940Z,5.02
2019-02-12T07:35:05.966Z,5.06
2019-02-12T07:36:05.994Z,5.09
2019-02-12T07:37:06.021Z,5.15
2019-02-12T07:38:06.050Z,5.23
2019-02-12T07:39:06.078Z,5.14
2019-02-12T07:40:06.106Z,5.27
2019-02-12T07:41:06.134Z,5.24
2019-02-12T07:42:06.161Z,5.33
2019-02-12T07:43:06.190Z,5.26
2019-02-12T07:44:06.218Z,5.20
2019-02-12T07:45:06.258Z,5.22
2019-02-12T07:46:06.273Z,5.26
2019-02-12T07:47:06.307Z,5.33
2019-02-12T07:48:06.333Z,5.27
2019-02-12T07:49:06.368Z,5.26
2019-02-12T07:50:06.386Z,5.33
2019-02-12T07:51:06.419Z,5.40
2019-02-12T07:52:06.441Z,5.33
2019-02-12T07:53:06.467Z,5.42
2019-02-12T07:54:06.500Z,5.45
2019-02-12T07:55:06.524Z,5.44
2019-02-12T07:56:06.570Z,5.42
2019-02-12T07:57:06.588Z,5.45
2019-02-12T07:58:06.610Z,5.51
2019-02-12T07:59:06.675Z,5.52
2019-02-12T08:00:06.692Z,5.52
2019-02-12T08:01:06.695Z,5.48
2019-02-12T08:02:06.721Z,5.55
2019-02-12T08:03:06.750Z,5.52
2019-02-12T08:04:06.777Z,5.58
2019-02-12T08:05:06.810Z,5.51
2019-02-12T08:06:06.849Z,5.52
2019-02-12T08:07:06.863Z,5.56
2019-02-12T08:08:06.891Z,5.56
2019-02-12T08:09:06.918Z,5.58
2019-02-12T08:10:06.946Z,5.48
2019-02-12T08:11:06.975Z,5.58
2019-02-12T08:12:07.002Z,5.56
2019-02-12T08:13:07.029Z,5.56
2019-02-12T08:14:07.058Z,5.56
2019-02-12T08:15:07.086Z,5.60
2019-02-12T08:16:08.255Z,5.65
2019-02-12T08:17:07.142Z,5.63
2019-02-12T08:18:07.170Z,5.60
2019-02-12T08:19:07.199Z,5.65
2019-02-12T08:20:07.230Z,5.62
2019-02-12T08:21:07.254Z,5.60
2019-02-12T08:22:07.284Z,5.63
2019-02-12T08:23:07.313Z,5.63
2019-02-12T08:24:07.341Z,5.66
2019-02-12T08:25:07.368Z,5.75
2019-02-12T08:26:07.396Z,5.70
2019-02-12T08:27:07.426Z,5.77
2019-02-12T08:28:07.453Z,5.77
2019-02-12T08:29:07.486Z,5.83
2019-02-12T08:30:07.510Z,5.84
2019-02-12T08:31:07.536Z,5.87
2019-02-12T08:32:07.565Z,5.84
2019-02-12T08:33:07.602Z,5.95
2019-02-12T08:34:07.622Z,5.83
2019-02-12T08:35:07.658Z,5.88
2019-02-12T08:36:07.677Z,5.90
2019-02-12T08:37:07.707Z,5.84
2019-02-12T08:38:07.734Z,5.87
2019-02-12T08:39:07.770Z,5.81
2019-02-12T08:40:07.796Z,5.85
2019-02-12T08:41:07.819Z,5.92
2019-02-12T08:42:07.848Z,5.83
2019-02-12T08:43:07.896Z,5.90
2019-02-12T08:44:07.908Z,5.88
2019-02-12T08:45:07.941Z,5.98
2019-02-12T08:46:07.960Z,5.98
2019-02-12T08:47:08.009Z,5.88
2019-02-12T08:48:08.017Z,5.96
2019-02-12T08:49:08.046Z,5.96
2019-02-12T08:50:08.074Z,6.10
2019-02-12T08:51:08.107Z,6.08
2019-02-12T08:52:08.131Z,6.10
2019-02-12T08:53:08.159Z,6.08
2019-02-12T08:54:08.195Z,6.20
2019-02-12T08:55:08.215Z,6.33
2019-02-12T08:56:08.244Z,6.30
2019-02-12T08:57:08.272Z,6.43
2019-02-12T08:58:08.303Z,6.39
2019-02-12T08:59:08.332Z,6.45
2019-02-12T09:00:08.362Z,6.60
2019-02-12T09:01:08.388Z,6.61
2019-02-12T09:02:08.416Z,6.71
2019-02-12T09:03:08.444Z,6.71
2019-02-12T09:04:08.472Z,6.65
2019-02-12T09:05:08.501Z,6.72
2019-02-12T09:06:08.542Z,6.87
2019-02-12T09:07:08.558Z,6.83
2019-02-12T09:08:08.585Z,6.83
2019-02-12T09:09:08.616Z,7.00
2019-02-12T09:10:08.645Z,7.01
2019-02-12T09:11:08.672Z,7.19
2019-02-12T09:12:08.701Z,7.24
2019-02-12T09:13:08.742Z,7.34
2019-02-12T09:14:08.764Z,7.37
2019-02-12T09:15:08.788Z,7.52
2019-02-12T09:16:08.818Z,7.62
2019-02-12T09:17:08.847Z,7.69
2019-02-12T09:18:08.874Z,7.79
2019-02-12T09:19:08.905Z,7.74
2019-02-12T09:20:08.933Z,7.79
2019-02-12T09:21:08.962Z,7.85
2019-02-12T09:22:08.991Z,7.81
2019-02-12T09:23:09.022Z,7.88
2019-02-12T09:24:09.050Z,7.82
2019-02-12T09:25:09.079Z,7.82
2019-02-12T09:26:09.112Z,7.91
2019-02-12T09:27:09.160Z,8.00
2019-02-12T09:28:09.165Z,8.06
2019-02-12T09:29:09.195Z,8.27
2019-02-12T09:30:09.230Z,8.25
2019-02-12T09:31:09.257Z,8.45
2019-02-12T09:32:09.286Z,8.73
2019-02-12T09:33:09.314Z,8.88
2019-02-12T09:34:09.343Z,9.15
2019-02-12T09:35:09.372Z,9.24
2019-02-12T09:36:09.404Z,9.40
2019-02-12T09:37:09.431Z,9.62
2019-02-12T09:38:09.463Z,9.70
2019-02-12T09:39:09.492Z,9.77
2019-02-12T09:40:09.521Z,9.75
2019-02-12T09:41:09.552Z,9.68
2019-02-12T09:42:09.581Z,9.68
2019-02-12T09:43:09.610Z,9.65
2019-02-12T09:44:09.643Z,9.75
2019-02-12T09:45:09.681Z,9.68
2019-02-12T09:46:09.701Z,9.68
2019-02-12T09:47:09.731Z,9.74
2019-02-12T09:48:09.766Z,9.77
2019-02-12T09:49:09.862Z,9.71
2019-02-12T09:50:09.821Z,9.71
2019-02-12T09:51:09.853Z,9.70
2019-02-12T09:52:09.882Z,9.81
2019-02-12T09:53:09.914Z,9.83
2019-02-12T09:54:09.941Z,9.78
2019-02-12T09:55:09.974Z,9.81
2019-02-12T09:56:10.000Z,9.93
2019-02-12T09:57:10.032Z,9.88
2019-02-12T09:58:10.064Z,9.89
2019-02-12T09:59:10.094Z,9.88
2019-02-12T10:00:10.121Z,9.81
2019-02-12T10:01:10.177Z,9.80
2019-02-12T10:02:10.183Z,9.68
2019-02-12T10:03:10.215Z,9.53
2019-02-12T10:04:10.246Z,9.53
2019-02-12T10:05:10.275Z,9.50
2019-02-12T10:06:10.311Z,9.56
2019-02-12T10:07:10.337Z,9.63
2019-02-12T10:08:10.367Z,9.65
2019-02-12T10:09:10.399Z,9.74
2019-02-12T10:10:10.430Z,9.85
2019-02-12T10:11:10.487Z,9.83
2019-02-12T10:12:10.488Z,9.77
2019-02-12T10:13:10.520Z,9.88
2019-02-12T10:14:10.555Z,9.95
2019-02-12T10:15:10.584Z,9.88
2019-02-12T10:16:10.612Z,9.86
2019-02-12T10:17:10.646Z,9.93
2019-02-12T10:18:10.675Z,9.95
2019-02-12T10:19:10.707Z,9.91
2019-02-12T10:20:10.737Z,9.98
2019-02-12T10:21:10.769Z,9.99
2019-02-12T10:22:10.808Z,10.06
2019-02-12T10:23:10.836Z,10.24
2019-02-12T10:24:19.419Z,10.44
2019-02-12T10:25:10.902Z,10.62
2019-02-12T10:26:10.936Z,10.76
2019-02-12T10:27:10.970Z,10.99
2019-02-12T10:28:11.005Z,11.35
2019-02-12T10:29:11.040Z,11.59
2019-02-12T10:30:11.075Z,11.88
2019-02-12T10:31:11.112Z,12.21
2019-02-12T10:32:11.147Z,12.54
2019-02-12T10:33:11.184Z,12.73
2019-02-12T10:34:11.225Z,12.88
2019-02-12T10:35:11.259Z,12.92
2019-02-12T10:36:11.294Z,12.91
2019-02-12T10:37:11.332Z,12.98
2019-02-12T10:39:11.412Z,14.30
2019-02-12T10:40:11.458Z,15.49
2019-02-12T10:41:11.483Z,16.75
2019-02-12T10:42:11.518Z,17.98
2019-02-12T10:43:11.555Z,18.76
2019-02-12T10:44:11.595Z,19.92
2019-02-12T10:45:11.635Z,21.12
2019-02-12T10:46:11.671Z,22.30
2019-02-12T10:47:11.711Z,23.23
2019-02-12T10:48:11.749Z,24.24
2019-02-12T10:49:11.788Z,25.05
2019-02-12T10:50:11.829Z,25.44
2019-02-12T10:51:11.868Z,25.86
2019-02-12T10:52:11.912Z,26.35
2019-02-12T10:53:11.949Z,27.08
2019-02-12T10:54:13.519Z,27.66
2019-02-12T10:55:12.032Z,28.33
2019-02-12T10:56:12.073Z,29.11
2019-02-12T10:57:12.115Z,29.64
2019-02-12T10:58:12.157Z,29.58
2019-02-12T10:59:14.397Z,29.51
2019-02-12T11:00:12.249Z,29.42
2019-02-12T11:01:12.287Z,29.49
2019-02-12T11:02:12.326Z,29.33
2019-02-12T11:03:12.369Z,29.10
2019-02-12T11:04:12.410Z,29.07
2019-02-12T11:05:12.453Z,29.14
2019-02-12T11:06:12.501Z,29.45
2019-02-12T11:07:12.539Z,29.70
2019-02-12T11:08:12.583Z,29.58
2019-02-12T11:09:12.626Z,29.82
2019-02-12T11:10:12.670Z,29.49
2019-02-12T11:11:12.711Z,29.41
2019-02-12T11:12:12.754Z,28.55
2019-02-12T11:13:12.798Z,27.74
2019-02-12T11:14:12.843Z,26.66
2019-02-12T11:15:12.885Z,25.76
2019-02-12T11:16:12.928Z,24.80
2019-02-12T11:17:12.971Z,23.97
2019-02-12T11:18:13.022Z,23.07
2019-02-12T11:19:13.058Z,22.19
2019-02-12T11:20:13.099Z,21.71
2019-02-12T11:21:13.142Z,21.52
2019-02-12T11:22:13.191Z,21.63
2019-02-12T11:23:13.224Z,21.22
2019-02-12T11:24:13.265Z,20.76
2019-02-12T11:25:13.306Z,20.12
2019-02-12T11:26:13.347Z,19.50
2019-02-12T11:27:13.388Z,19.23
2019-02-12T11:28:13.426Z,19.49
2019-02-12T11:29:13.468Z,20.38
2019-02-12T11:30:13.508Z,21.19
2019-02-12T11:31:13.550Z,21.79
2019-02-12T11:32:13.587Z,21.89
2019-02-12T11:33:13.633Z,21.36
2019-02-12T11:34:13.962Z,20.72
2019-02-12T11:35:13.708Z,20.42
2019-02-12T11:36:13.746Z,20.60
2019-02-12T11:37:13.790Z,20.82
2019-02-12T11:38:13.826Z,20.81
2019-02-12T11:39:13.865Z,20.82
2019-02-12T11:40:13.916Z,20.50
2019-02-12T11:41:13.944Z,19.90
2019-02-12T11:42:13.986Z,19.43
2019-02-12T11:43:14.022Z,18.79
2019-02-12T11:44:14.060Z,18.04
2019-02-12T11:45:14.099Z,17.49
2019-02-12T11:46:14.136Z,17.42
2019-02-12T11:47:14.177Z,18.16
2019-02-12T11:48:14.213Z,18.89
2019-02-12T11:49:14.251Z,19.39
2019-02-12T11:50:14.290Z,19.89
2019-02-12T11:51:14.335Z,20.88
2019-02-12T11:52:14.367Z,22.15
2019-02-12T11:53:14.403Z,23.37
2019-02-12T11:54:14.440Z,24.55
2019-02-12T11:55:14.478Z,25.76
2019-02-12T11:56:14.516Z,26.96
2019-02-12T11:57:15.838Z,27.91
2019-02-12T11:58:14.593Z,28.70
2019-02-12T11:59:14.629Z,29.39
2019-02-12T12:00:14.667Z,30.06
2019-02-12T12:01:14.705Z,30.67
2019-02-12T12:02:14.745Z,31.10
2019-02-12T12:03:14.783Z,31.76
2019-02-12T12:04:14.818Z,32.35
2019-02-12T12:05:14.859Z,32.90
2019-02-12T12:06:14.893Z,33.00
2019-02-12T12:07:14.934Z,33.28
2019-02-12T12:08:14.969Z,33.50
2019-02-12T12:09:15.007Z,33.38
2019-02-12T12:10:15.051Z,33.43
2019-02-12T12:11:15.083Z,33.34
2019-02-12T12:12:15.122Z,33.44
2019-02-12T12:13:15.159Z,33.66
2019-02-12T12:14:15.196Z,33.72
2019-02-12T12:15:15.235Z,33.84
2019-02-12T12:16:15.272Z,33.96
2019-02-12T12:17:15.319Z,33.97
2019-02-12T12:18:15.351Z,33.86
2019-02-12T12:19:15.389Z,33.55
2019-02-12T12:20:15.427Z,32.88
2019-02-12T12:21:15.465Z,31.98
2019-02-12T12:22:15.526Z,31.16
2019-02-12T12:23:15.543Z,30.53
2019-02-12T12:24:15.581Z,29.35
2019-02-12T12:25:15.619Z,28.36
2019-02-12T12:26:15.657Z,27.23
2019-02-12T12:27:15.698Z,26.03
2019-02-12T12:28:15.735Z,24.82
2019-02-12T12:29:15.775Z,24.11
2019-02-12T12:30:15.813Z,23.44
2019-02-12T12:31:15.851Z,22.86
2019-02-12T12:32:15.888Z,22.59
2019-02-12T12:33:15.929Z,22.51
2019-02-12T12:34:15.967Z,22.44
2019-02-12T12:35:16.004Z,22.01
2019-02-12T12:36:16.044Z,21.58
2019-02-12T12:37:16.082Z,21.00
2019-02-12T12:38:16.121Z,20.53
2019-02-12T12:39:16.162Z,19.90
2019-02-12T12:40:16.198Z,19.42
2019-02-12T12:41:16.235Z,18.84
2019-02-12T12:42:16.276Z,18.19
2019-02-12T12:43:16.312Z,17.68
2019-02-12T12:44:16.351Z,17.25
2019-02-12T12:45:16.421Z,16.96
2019-02-12T12:46:16.428Z,16.98
2019-02-12T12:47:16.465Z,17.38
2019-02-12T12:48:16.502Z,17.91
2019-02-12T12:49:16.539Z,18.54
2019-02-12T12:50:16.577Z,19.25
2019-02-12T12:51:16.616Z,19.90
2019-02-12T12:52:16.654Z,20.60
2019-02-12T12:53:16.700Z,21.24
2019-02-12T12:54:16.730Z,21.94
2019-02-12T12:55:16.779Z,22.39
2019-02-12T12:56:16.815Z,22.61
2019-02-12T12:57:16.848Z,22.96
2019-02-12T12:58:16.888Z,22.78
2019-02-12T12:59:16.931Z,22.35
2019-02-12T13:00:16.969Z,21.89
2019-02-12T13:01:17.012Z,21.21
2019-02-12T13:02:17.054Z,20.64
2019-02-12T13:03:17.088Z,20.01
2019-02-12T13:04:17.128Z,19.53
2019-02-12T13:05:17.168Z,18.94
2019-02-12T13:06:17.210Z,18.41
2019-02-12T13:07:17.259Z,18.14
2019-02-12T13:08:17.283Z,17.63
2019-02-12T13:09:17.323Z,17.54
2019-02-12T13:10:17.364Z,18.14
2019-02-12T13:11:17.425Z,19.42
2019-02-12T13:12:17.440Z,20.73
2019-02-12T13:13:17.479Z,22.12
2019-02-12T13:14:17.519Z,23.62